Time;durP1;ratioP1;P1;durP2;ratioP2;P2;SDS_P1;SDS_P2;PMS_P1;PMS_P2;Temp;Humidity;BMP_temperature;BMP_pressure;BME280_temperature;BME280_humidity;BME280_pressure;Samples;Min_cycle;Max_cycle;Signal;HPM_P1;HPM_P2
2021/05/17 00:00:14;;;;;;;7.00;5.70;;;11.10;86.40;;;;;;4964196;29;20179;-89
2021/05/17 00:02:42;;;;;;;6.10;5.70;;;10.20;84.20;;;;;;4965782;29;20190;-91
2021/05/17 00:05:09;;;;;;;5.00;4.80;;;11.50;85.40;;;;;;4964933;29;20893;-89
2021/05/17 00:07:38;;;;;;;5.10;4.90;;;10.30;82.40;;;;;;4966746;29;20477;-89
2021/05/17 00:10:07;;;;;;;5.17;4.77;;;10.40;82.00;;;;;;4967410;29;20422;-90
2021/05/17 00:12:32;;;;;;;4.70;4.60;;;10.20;82.30;;;;;;4962856;28;20454;-88
2021/05/17 00:14:58;;;;;;;6.17;5.60;;;10.20;82.40;;;;;;4963611;29;20430;-89
2021/05/17 00:17:27;;;;;;;6.03;5.57;;;10.20;82.40;;;;;;4947258;29;20453;-88
2021/05/17 00:19:53;;;;;;;5.30;4.97;;;10.20;82.40;;;;;;4964679;29;20413;-89
2021/05/17 00:22:19;;;;;;;5.03;4.80;;;10.30;82.90;;;;;;4965884;29;20265;-91
2021/05/17 00:24:44;;;;;;;4.73;4.43;;;10.30;82.50;;;;;;4965580;29;20170;-90
2021/05/17 00:27:11;;;;;;;4.57;4.37;;;10.30;82.80;;;;;;4965911;29;20509;-89
2021/05/17 00:29:36;;;;;;;5.82;4.50;;;10.30;81.30;;;;;;4948845;29;20214;-90
2021/05/17 00:32:02;;;;;;;4.43;3.90;;;10.40;80.80;;;;;;4966004;29;20167;-89
2021/05/17 00:34:28;;;;;;;4.10;4.00;;;10.40;81.00;;;;;;4966617;29;20167;-89
2021/05/17 00:36:55;;;;;;;4.73;4.40;;;10.40;82.00;;;;;;4965287;29;20760;-89
2021/05/17 00:39:22;;;;;;;4.00;3.90;;;10.20;82.10;;;;;;4965381;29;20186;-89
2021/05/17 00:41:48;;;;;;;3.87;3.77;;;10.50;81.30;;;;;;4965199;29;20411;-90
2021/05/17 00:44:14;;;;;;;4.53;4.03;;;11.00;82.50;;;;;;4932616;29;20833;-89
2021/05/17 00:46:40;;;;;;;7.90;4.70;;;10.30;82.10;;;;;;4967225;29;20473;-90
2021/05/17 00:49:08;;;;;;;3.80;3.70;;;10.30;81.70;;;;;;4964828;29;20175;-90
2021/05/17 00:51:34;;;;;;;4.43;3.87;;;10.40;80.70;;;;;;4960533;29;20430;-89
2021/05/17 00:54:01;;;;;;;6.20;4.10;;;10.40;81.80;;;;;;4962693;29;20430;-90
2021/05/17 00:56:27;;;;;;;4.87;3.70;;;11.90;84.30;;;;;;4963019;29;20434;-90
2021/05/17 00:58:54;;;;;;;4.13;3.93;;;10.50;81.50;;;;;;4961764;29;20406;-89
2021/05/17 01:01:19;;;;;;;4.22;3.72;;;12.10;82.70;;;;;;4944770;29;20430;-88
2021/05/17 01:03:45;;;;;;;3.40;3.30;;;9.80;82.00;;;;;;4961995;29;20697;-90
2021/05/17 01:06:12;;;;;;;4.27;3.87;;;11.10;82.90;;;;;;4963180;29;20202;-89
2021/05/17 01:08:45;;;;;;;4.60;4.27;;;10.70;82.40;;;;;;4961142;29;20770;-90
2021/05/17 01:11:12;;;;;;;3.80;3.70;;;10.20;81.60;;;;;;4965201;29;20898;-89
2021/05/17 01:13:41;;;;;;;3.60;3.50;;;11.80;83.00;;;;;;4963979;29;20419;-89
2021/05/17 01:16:07;;;;;;;4.80;4.60;;;11.20;84.50;;;;;;4961239;29;20539;-90
2021/05/17 01:18:33;;;;;;;4.10;3.90;;;10.30;84.10;;;;;;4962563;29;20906;-88
2021/05/17 01:20:59;;;;;;;3.93;3.83;;;10.20;83.60;;;;;;4943575;29;20462;-90
2021/05/17 01:25:57;;;;;;;6.10;5.70;;;10.30;81.10;;;;;;4963811;29;20541;-90
2021/05/17 01:28:27;;;;;;;6.00;5.37;;;11.90;84.10;;;;;;4960780;29;20445;-89
2021/05/17 01:30:56;;;;;;;4.20;4.00;;;10.00;81.70;;;;;;4959313;29;20432;-89
2021/05/17 01:33:22;;;;;;;4.50;4.30;;;10.40;82.70;;;;;;4958148;29;20489;-89
2021/05/17 01:35:48;;;;;;;4.83;4.53;;;10.30;82.60;;;;;;4958442;29;20406;-90
2021/05/17 01:38:16;;;;;;;5.43;4.70;;;10.40;84.20;;;;;;4958700;29;20991;-90
2021/05/17 01:40:46;;;;;;;4.60;4.20;;;10.20;82.40;;;;;;4958771;29;20928;-90
2021/05/17 01:43:16;;;;;;;5.82;5.40;;;9.80;83.60;;;;;;4960143;29;20453;-91
2021/05/17 01:45:44;;;;;;;5.87;5.30;;;10.30;83.50;;;;;;4969007;29;20275;-89
2021/05/17 01:48:10;;;;;;;5.10;4.60;;;10.30;84.20;;;;;;4953050;29;20419;-90
2021/05/17 01:50:37;;;;;;;4.70;4.50;;;10.30;82.80;;;;;;4967865;29;20465;-90
2021/05/17 01:53:04;;;;;;;4.77;4.37;;;10.40;82.50;;;;;;4965658;29;20433;-90
2021/05/17 01:55:30;;;;;;;4.73;4.53;;;10.40;83.20;;;;;;4960116;29;20453;-91
2021/05/17 01:58:13;;;;;;;4.30;4.00;;;11.00;84.10;;;;;;4960351;29;20480;-89
2021/05/17 02:00:42;;;;;;;4.20;4.10;;;10.40;83.40;;;;;;4960043;29;20410;-90
2021/05/17 02:03:09;;;;;;;3.97;3.70;;;10.40;83.90;;;;;;4962894;29;20414;-89
2021/05/17 02:05:35;;;;;;;3.97;3.83;;;10.50;83.30;;;;;;4960319;29;20426;-89
2021/05/17 02:08:03;;;;;;;3.73;3.47;;;10.50;82.10;;;;;;4945700;29;20521;-90
2021/05/17 02:10:30;;;;;;;3.63;3.43;;;10.40;82.80;;;;;;4963540;29;20421;-90
2021/05/17 02:12:59;;;;;;;4.00;3.80;;;10.30;83.70;;;;;;4962363;29;20430;-89
2021/05/17 02:15:25;;;;;;;3.37;3.23;;;10.40;83.90;;;;;;4964200;29;20469;-88
2021/05/17 02:18:08;;;;;;;3.37;3.27;;;10.40;83.50;;;;;;4971035;29;20425;-89
2021/05/17 02:20:36;;;;;;;3.50;3.40;;;10.40;83.20;;;;;;4970234;29;20604;-89
2021/05/17 02:23:05;;;;;;;3.50;3.40;;;11.50;85.70;;;;;;4960369;29;20463;-89
2021/05/17 02:25:32;;;;;;;6.07;3.63;;;10.30;84.20;;;;;;4963335;29;20841;-89
2021/05/17 02:27:57;;;;;;;3.30;3.30;;;10.20;84.50;;;;;;4960565;29;20426;-90
2021/05/17 02:30:25;;;;;;;4.53;4.23;;;11.50;88.30;;;;;;4960076;29;20449;-90
2021/05/17 02:32:53;;;;;;;4.83;3.67;;;10.30;85.90;;;;;;4958839;29;20235;-89
2021/05/17 02:35:20;;;;;;;3.57;3.37;;;11.30;87.30;;;;;;4961460;28;20421;-90
2021/05/17 02:37:47;;;;;;;3.50;3.37;;;10.30;86.00;;;;;;4945409;29;20421;-90
2021/05/17 02:40:14;;;;;;;3.80;3.60;;;10.50;86.10;;;;;;4962378;29;20498;-89
2021/05/17 02:42:44;;;;;;;2.47;2.43;;;10.40;86.30;;;;;;4960495;29;20929;-88
2021/05/17 02:45:10;;;;;;;3.60;3.30;;;10.50;84.40;;;;;;4962700;29;20445;-89
2021/05/17 02:47:37;;;;;;;3.50;3.30;;;10.60;84.00;;;;;;4962037;29;20481;-89
2021/05/17 02:50:06;;;;;;;3.70;3.40;;;10.10;83.50;;;;;;4944339;29;20944;-89
2021/05/17 02:52:34;;;;;;;4.43;3.93;;;10.50;83.30;;;;;;4960614;29;20426;-90
2021/05/17 02:55:13;;;;;;;2.93;2.87;;;11.10;84.60;;;;;;4942957;29;20505;-90
2021/05/17 02:57:48;;;;;;;4.20;3.70;;;10.50;82.50;;;;;;4962439;29;20728;-90
2021/05/17 03:00:22;;;;;;;2.53;2.27;;;10.40;83.80;;;;;;4943844;29;20421;-89
2021/05/17 03:03:09;;;;;;;3.73;3.63;;;10.40;82.50;;;;;;4961689;29;21012;-89
2021/05/17 03:05:40;;;;;;;3.70;3.67;;;10.40;82.80;;;;;;4962285;29;20418;-89
2021/05/17 03:08:18;;;;;;;3.20;3.10;;;10.40;83.40;;;;;;4964118;29;20430;-89
2021/05/17 03:10:44;;;;;;;5.60;3.37;;;10.40;83.00;;;;;;4961658;29;20446;-89
2021/05/17 03:13:15;;;;;;;3.43;3.23;;;11.10;84.90;;;;;;4944217;29;20430;-90
2021/05/17 03:15:41;;;;;;;3.77;3.13;;;11.70;85.30;;;;;;4962972;29;20421;-90
2021/05/17 03:18:08;;;;;;;3.70;3.50;;;10.40;84.40;;;;;;4968273;29;20406;-90
2021/05/17 03:20:38;;;;;;;4.90;4.67;;;10.20;84.20;;;;;;4967586;29;20458;-89
2021/05/17 03:23:11;;;;;;;3.83;3.57;;;11.50;87.40;;;;;;4950773;29;20418;-89
2021/05/17 03:25:38;;;;;;;3.63;3.43;;;10.80;85.40;;;;;;4967850;29;20403;-90
2021/05/17 03:28:04;;;;;;;3.87;3.57;;;10.40;84.00;;;;;;4967084;29;20425;-90
2021/05/17 03:30:32;;;;;;;3.80;3.70;;;10.50;84.90;;;;;;4961563;29;20483;-89
2021/05/17 03:32:57;;;;;;;3.20;3.10;;;11.90;86.20;;;;;;4962350;29;20485;-89
2021/05/17 03:35:23;;;;;;;3.53;3.23;;;10.80;85.80;;;;;;4963671;29;20418;-89
2021/05/17 03:37:49;;;;;;;4.07;3.87;;;11.50;87.30;;;;;;4962506;29;20174;-89
2021/05/17 03:40:16;;;;;;;2.53;2.50;;;10.10;85.60;;;;;;4959945;29;20170;-90
2021/05/17 03:42:42;;;;;;;7.34;3.58;;;11.60;85.90;;;;;;4275487;28;10000678;-89
2021/05/17 03:45:09;;;;;;;3.50;3.40;;;9.60;85.60;;;;;;4947291;28;20178;-91
2021/05/17 03:47:35;;;;;;;3.17;3.07;;;10.30;84.70;;;;;;4958755;29;20472;-90
2021/05/17 03:50:01;;;;;;;4.10;3.90;;;11.50;87.00;;;;;;4959099;29;20402;-90
2021/05/17 03:52:27;;;;;;;2.93;2.83;;;10.20;85.80;;;;;;4943016;29;20213;-90
2021/05/17 03:54:52;;;;;;;4.17;3.57;;;10.20;85.10;;;;;;4962940;29;20414;-90
2021/05/17 03:57:18;;;;;;;3.13;2.93;;;11.90;87.50;;;;;;4959526;29;20182;-90
2021/05/17 03:59:46;;;;;;;3.50;3.20;;;10.20;84.90;;;;;;4962259;29;20175;-90
2021/05/17 04:02:25;;;;;;;2.37;2.27;;;10.30;84.60;;;;;;4961841;29;20174;-90
2021/05/17 04:05:03;;;;;;;2.80;2.73;;;10.30;85.00;;;;;;4944498;29;20892;-89
2021/05/17 04:15:25;;;;;;;4.30;4.10;;;11.00;85.50;;;;;;4964174;29;20422;-90
2021/05/17 04:17:51;;;;;;;3.00;2.90;;;10.20;85.20;;;;;;4946634;29;20179;-89
2021/05/17 04:20:17;;;;;;;2.90;2.80;;;10.40;85.70;;;;;;4962941;29;20170;-90
2021/05/17 04:22:42;;;;;;;3.77;3.43;;;11.30;86.00;;;;;;4960845;29;20197;-89
2021/05/17 04:25:09;;;;;;;3.40;3.10;;;11.60;85.90;;;;;;4944887;29;20171;-89
2021/05/17 04:27:35;;;;;;;3.83;3.50;;;10.50;84.30;;;;;;4942406;29;20233;-88
2021/05/17 04:30:06;;;;;;;4.50;4.07;;;10.30;85.00;;;;;;4965972;29;20518;-89
2021/05/17 04:32:32;;;;;;;3.83;3.73;;;10.60;84.00;;;;;;4943619;29;20418;-90
2021/05/17 04:34:58;;;;;;;3.43;3.30;;;11.40;85.00;;;;;;4944385;29;20426;-89
2021/05/17 04:37:23;;;;;;;4.00;3.17;;;10.00;85.50;;;;;;4948928;29;20174;-88
2021/05/17 04:39:49;;;;;;;2.90;2.80;;;10.30;83.70;;;;;;4947309;29;20167;-90
2021/05/17 04:42:15;;;;;;;3.20;3.10;;;12.20;86.70;;;;;;4944110;29;20170;-90
2021/05/17 04:44:40;;;;;;;3.80;3.50;;;12.40;87.20;;;;;;4968143;29;20178;-90
2021/05/17 04:47:06;;;;;;;3.23;3.00;;;12.40;85.00;;;;;;4969073;29;20245;-90
2021/05/17 04:49:32;;;;;;;4.20;3.93;;;10.70;82.80;;;;;;4946897;29;20221;-89
2021/05/17 04:51:58;;;;;;;3.83;3.70;;;11.70;86.00;;;;;;4950699;29;20645;-88
2021/05/17 04:54:23;;;;;;;3.63;3.30;;;9.80;85.80;;;;;;4967625;29;20182;-89
2021/05/17 04:56:49;;;;;;;2.77;2.50;;;10.70;83.60;;;;;;4951516;28;20266;-89
2021/05/17 04:59:15;;;;;;;3.30;3.20;;;11.00;85.20;;;;;;4949538;29;20181;-89
2021/05/17 05:01:43;;;;;;;3.13;3.00;;;10.30;84.10;;;;;;4953190;29;20199;-89
2021/05/17 05:04:10;;;;;;;3.40;3.17;;;13.10;86.60;;;;;;4968514;29;20170;-89
2021/05/17 05:06:37;;;;;;;2.63;2.63;;;11.60;86.00;;;;;;4935324;29;20474;-87
2021/05/17 05:09:03;;;;;;;3.30;3.00;;;12.20;85.10;;;;;;4967803;29;20426;-90
2021/05/17 05:11:29;;;;;;;3.10;3.00;;;10.60;83.10;;;;;;4970637;29;20465;-89
2021/05/17 05:13:55;;;;;;;5.17;3.30;;;11.70;85.10;;;;;;4967618;29;20407;-89
2021/05/17 05:16:21;;;;;;;3.17;3.07;;;11.50;85.00;;;;;;4953265;29;20179;-89
2021/05/17 05:18:47;;;;;;;3.70;3.60;;;12.20;83.40;;;;;;4967811;29;20175;-88
2021/05/17 05:21:22;;;;;;;5.30;3.53;;;10.60;81.60;;;;;;4949168;29;20473;-90
2021/05/17 05:23:50;;;;;;;2.97;2.77;;;11.10;85.00;;;;;;4949675;29;20197;-89
2021/05/17 05:26:39;;;;;;;2.80;2.70;;;11.10;82.70;;;;;;4952455;29;20462;-88
2021/05/17 05:29:23;;;;;;;3.60;3.27;;;12.20;82.20;;;;;;4970258;29;20406;-87
2021/05/17 05:34:49;;;;;;;4.10;3.00;;;11.10;81.40;;;;;;4954790;29;20514;-89
2021/05/17 05:37:15;;;;;;;3.20;3.10;;;11.60;80.80;;;;;;4951683;29;20476;-89
2021/05/17 05:39:44;;;;;;;3.57;3.37;;;12.60;82.50;;;;;;4950688;29;20441;-88
2021/05/17 05:42:11;;;;;;;5.53;3.47;;;12.00;80.80;;;;;;4951751;29;20422;-87
2021/05/17 05:44:43;;;;;;;2.70;2.70;;;13.20;83.20;;;;;;4951924;29;20426;-87
2021/05/17 05:47:17;;;;;;;2.90;2.70;;;11.90;81.00;;;;;;4952105;29;20474;-88
2021/05/17 05:49:52;;;;;;;3.80;3.40;;;11.70;79.10;;;;;;4966386;29;20425;-90
2021/05/17 05:52:18;;;;;;;5.33;5.10;;;11.60;78.70;;;;;;4947225;29;20418;-91
2021/05/17 05:54:45;;;;;;;3.53;3.33;;;11.50;79.60;;;;;;4945558;29;20430;-89
2021/05/17 05:57:14;;;;;;;2.83;2.60;;;12.40;80.70;;;;;;4949826;29;20489;-90
2021/05/17 05:59:40;;;;;;;4.10;3.80;;;11.30;82.10;;;;;;4935879;29;20457;-89
2021/05/17 06:02:06;;;;;;;3.60;3.50;;;11.30;80.00;;;;;;4973413;29;20415;-87
2021/05/17 06:04:32;;;;;;;5.30;3.73;;;11.30;81.00;;;;;;4970555;29;20174;-89
2021/05/17 06:06:58;;;;;;;4.40;4.20;;;12.50;85.30;;;;;;4971538;29;20213;-89
2021/05/17 06:09:24;;;;;;;5.07;4.73;;;11.70;82.80;;;;;;4949408;29;20445;-90
2021/05/17 06:11:55;;;;;;;4.20;3.90;;;11.40;83.40;;;;;;4945702;29;20415;-89
2021/05/17 06:14:22;;;;;;;3.67;3.60;;;11.40;82.10;;;;;;4930882;29;20178;-86
2021/05/17 06:16:48;;;;;;;4.57;4.30;;;11.40;83.50;;;;;;4933140;29;20494;-89
2021/05/17 06:19:14;;;;;;;3.80;3.60;;;11.40;83.10;;;;;;4938875;29;20433;-90
2021/05/17 06:21:40;;;;;;;4.13;3.83;;;11.40;80.70;;;;;;4956461;29;20214;-89
2021/05/17 06:24:08;;;;;;;4.80;4.30;;;11.50;81.70;;;;;;4956764;29;20429;-89
2021/05/17 06:26:34;;;;;;;4.10;3.80;;;11.60;81.50;;;;;;4957859;29;20466;-88
2021/05/17 06:29:00;;;;;;;4.20;3.90;;;11.80;80.70;;;;;;4939293;29;20441;-89
2021/05/17 06:31:26;;;;;;;4.17;3.77;;;11.90;80.50;;;;;;4940294;29;20419;-88
2021/05/17 06:33:52;;;;;;;3.40;3.10;;;12.00;80.10;;;;;;4953014;29;20450;-88
2021/05/17 06:36:18;;;;;;;13.20;5.33;;;12.00;79.10;;;;;;4940360;29;20411;-89
2021/05/17 06:38:44;;;;;;;4.70;4.30;;;11.90;77.70;;;;;;4581121;28;10001481;-88
2021/05/17 06:41:10;;;;;;;3.87;3.67;;;12.10;78.30;;;;;;4942865;29;20430;-88
2021/05/17 06:43:40;;;;;;;6.13;4.87;;;12.10;78.50;;;;;;4946167;29;20455;-89
2021/05/17 06:46:08;;;;;;;4.33;4.23;;;12.10;78.60;;;;;;4944149;29;20470;-88
2021/05/17 06:48:43;;;;;;;4.07;3.80;;;12.20;79.70;;;;;;4940707;29;20425;-88
2021/05/17 06:51:16;;;;;;;3.63;3.43;;;12.30;78.60;;;;;;4955123;29;20778;-89
2021/05/17 06:53:47;;;;;;;3.97;3.80;;;12.50;77.30;;;;;;4957029;29;20419;-90
2021/05/17 06:56:25;;;;;;;6.43;4.57;;;13.60;77.20;;;;;;4939507;29;20426;-85
2021/05/17 06:58:56;;;;;;;3.80;3.60;;;12.50;75.70;;;;;;4942345;29;20426;-89
2021/05/17 07:01:28;;;;;;;4.00;3.67;;;12.40;76.90;;;;;;4940278;29;20423;-90
2021/05/17 07:03:57;;;;;;;3.43;3.33;;;12.50;75.90;;;;;;4940719;29;20422;-91
2021/05/17 07:06:26;;;;;;;3.57;3.37;;;12.50;76.20;;;;;;4941006;29;20469;-89
2021/05/17 07:11:49;;;;;;;3.23;3.00;;;12.60;76.30;;;;;;4956290;29;20433;-89
2021/05/17 07:14:15;;;;;;;3.20;3.10;;;13.70;75.70;;;;;;4957097;29;20766;-89
2021/05/17 07:16:42;;;;;;;3.57;3.27;;;13.10;75.80;;;;;;4940189;29;20473;-89
2021/05/17 07:19:08;;;;;;;3.80;3.70;;;14.40;78.10;;;;;;4598268;29;10000584;-89
2021/05/17 07:24:22;;;;;;;3.87;3.67;;;12.80;75.00;;;;;;4949629;29;20186;-90
2021/05/17 07:26:48;;;;;;;3.53;3.20;;;13.10;75.00;;;;;;4927709;29;20530;-91
2021/05/17 07:29:15;;;;;;;3.53;3.23;;;13.20;73.60;;;;;;4924506;29;20868;-90
2021/05/17 07:31:41;;;;;;;3.10;2.90;;;13.20;73.80;;;;;;4924464;29;20427;-89
2021/05/17 07:34:10;;;;;;;9.43;7.20;;;13.40;75.00;;;;;;4925952;29;20458;-90
2021/05/17 07:36:35;;;;;;;5.40;3.23;;;13.20;73.50;;;;;;4942377;29;20419;-89
2021/05/17 07:39:01;;;;;;;2.85;2.75;;;12.50;70.80;;;;;;4599025;29;9999593;-91
2021/05/17 07:41:27;;;;;;;4.90;2.50;;;13.10;72.60;;;;;;4941796;29;20290;-89
2021/05/17 07:43:53;;;;;;;4.33;2.80;;;14.20;74.90;;;;;;4942618;29;20449;-88
2021/05/17 07:46:19;;;;;;;2.80;2.70;;;13.20;74.20;;;;;;4944207;29;20198;-87
2021/05/17 07:49:09;;;;;;;4.17;3.87;;;13.20;73.90;;;;;;4946499;29;20177;-90
2021/05/17 07:51:37;;;;;;;3.27;3.00;;;12.90;72.60;;;;;;4949096;29;20246;-89
2021/05/17 07:54:06;;;;;;;2.93;2.93;;;13.00;73.50;;;;;;4969320;29;20453;-90
2021/05/17 07:56:35;;;;;;;2.93;2.43;;;13.00;73.20;;;;;;4952233;28;20415;-89
2021/05/17 07:59:00;;;;;;;2.70;2.60;;;12.90;72.60;;;;;;4965256;29;20422;-89
2021/05/17 08:01:26;;;;;;;2.80;2.70;;;12.90;72.70;;;;;;4970895;29;20402;-91
2021/05/17 08:03:52;;;;;;;3.03;2.83;;;12.90;72.80;;;;;;4948791;29;20174;-89
2021/05/17 08:06:23;;;;;;;5.67;2.27;;;12.90;72.80;;;;;;4947570;29;20556;-89
2021/05/17 08:09:03;;;;;;;3.70;1.90;;;13.00;71.30;;;;;;4951342;29;20470;-92
2021/05/17 08:11:29;;;;;;;2.00;1.90;;;13.80;72.20;;;;;;4955805;29;20418;-90
2021/05/17 08:14:12;;;;;;;3.20;2.90;;;13.50;71.10;;;;;;4973516;29;20422;-90
2021/05/17 08:16:40;;;;;;;2.10;1.50;;;13.70;68.50;;;;;;4956898;29;20495;-89
2021/05/17 08:19:06;;;;;;;2.17;1.73;;;14.40;68.10;;;;;;4952045;29;21133;-91
2021/05/17 08:21:36;;;;;;;1.40;1.40;;;17.10;65.80;;;;;;4964395;29;20492;-90
2021/05/17 08:24:14;;;;;;;1.80;1.50;;;17.20;59.60;;;;;;4959594;29;20174;-89
2021/05/17 08:26:43;;;;;;;1.60;1.57;;;17.40;56.70;;;;;;4957567;29;20485;-90
2021/05/17 08:29:13;;;;;;;1.67;1.57;;;18.80;57.10;;;;;;4961587;28;20434;-92
2021/05/17 08:31:40;;;;;;;2.40;1.40;;;17.60;55.70;;;;;;5056667;23;20494;-88
2021/05/17 08:34:08;;;;;;;1.40;1.30;;;17.20;54.10;;;;;;4972494;28;20486;-89
2021/05/17 08:36:40;;;;;;;0.93;0.93;;;18.90;55.60;;;;;;4976166;28;20418;-87
2021/05/17 08:39:19;;;;;;;1.20;1.20;;;19.50;52.80;;;;;;5058971;23;20503;-90
2021/05/17 08:41:59;;;;;;;1.33;1.33;;;20.70;51.40;;;;;;4977077;28;20417;-89
2021/05/17 08:44:29;;;;;;;1.13;1.13;;;18.90;49.30;;;;;;4993463;28;20424;-89
2021/05/17 08:46:56;;;;;;;1.40;1.20;;;18.20;50.40;;;;;;4970781;28;20473;-89
2021/05/17 08:49:26;;;;;;;1.20;1.10;;;17.80;52.40;;;;;;4971582;28;20545;-89
2021/05/17 08:52:15;;;;;;;1.10;1.10;;;17.60;51.80;;;;;;4977687;28;20461;-88
2021/05/17 08:54:43;;;;;;;3.10;1.10;;;16.60;51.70;;;;;;4976875;28;20481;-91
2021/05/17 08:57:18;;;;;;;1.30;1.00;;;16.50;53.70;;;;;;4977557;28;20421;-90
2021/05/17 08:59:44;;;;;;;2.10;1.00;;;18.50;53.80;;;;;;4974584;28;20500;-90
2021/05/17 09:02:15;;;;;;;0.80;0.60;;;17.80;52.90;;;;;;4978266;28;20452;-89
2021/05/17 09:05:19;;;;;;;0.70;0.70;;;18.80;51.00;;;;;;4962752;28;20184;-87
2021/05/17 09:07:48;;;;;;;1.47;1.37;;;20.10;48.80;;;;;;4992452;28;20521;-90
2021/05/17 09:10:24;;;;;;;0.80;0.80;;;21.40;48.80;;;;;;4977502;28;20509;-91
2021/05/17 09:13:13;;;;;;;1.20;1.10;;;17.90;48.50;;;;;;4977934;28;20441;-89
2021/05/17 09:15:55;;;;;;;1.07;1.07;;;17.90;51.00;;;;;;4972532;28;20437;-90
2021/05/17 09:18:44;;;;;;;1.33;1.33;;;16.50;56.50;;;;;;4989673;28;20413;-89
2021/05/17 09:21:09;;;;;;;1.93;1.63;;;15.60;58.40;;;;;;4990535;28;20433;-88
2021/05/17 09:23:38;;;;;;;1.70;1.50;;;15.10;63.50;;;;;;4990966;28;20430;-89
2021/05/17 09:26:14;;;;;;;3.83;1.53;;;14.60;66.70;;;;;;4973483;28;20292;-89
2021/05/17 09:28:41;;;;;;;1.90;1.23;;;14.20;63.30;;;;;;4971773;28;20432;-88
2021/05/17 09:31:18;;;;;;;1.60;1.50;;;15.30;68.50;;;;;;4972263;28;20429;-88
2021/05/17 09:34:02;;;;;;;2.77;1.30;;;13.90;66.70;;;;;;4990915;28;20463;-89
2021/05/17 09:36:53;;;;;;;1.73;1.30;;;13.90;68.80;;;;;;4972844;28;20790;-88
2021/05/17 09:39:18;;;;;;;3.00;1.40;;;13.90;69.50;;;;;;4973323;28;20473;-89
2021/05/17 09:41:47;;;;;;;0.77;0.70;;;15.00;71.00;;;;;;4989420;28;20436;-87
2021/05/17 09:44:35;;;;;;;1.23;1.23;;;15.00;63.80;;;;;;4991326;28;20417;-89
2021/05/17 09:47:20;;;;;;;1.43;1.43;;;16.30;60.40;;;;;;4980661;28;20465;-89
2021/05/17 09:49:56;;;;;;;0.93;0.93;;;17.00;59.60;;;;;;4624412;29;10000760;-89
2021/05/17 09:52:36;;;;;;;1.23;1.23;;;17.90;57.10;;;;;;4965515;29;20497;-89
2021/05/17 09:55:10;;;;;;;1.13;1.13;;;18.50;54.60;;;;;;4968580;29;20402;-91
2021/05/17 09:57:49;;;;;;;1.30;1.30;;;19.40;54.50;;;;;;4938092;29;20430;-91
2021/05/17 10:00:28;;;;;;;0.87;0.87;;;20.20;50.80;;;;;;4972660;29;20486;-92
2021/05/17 10:03:01;;;;;;;1.13;1.13;;;20.70;50.00;;;;;;4956196;29;20430;-90
2021/05/17 10:05:39;;;;;;;1.47;1.37;;;21.70;51.30;;;;;;4971861;29;20438;-91
2021/05/17 10:08:26;;;;;;;1.67;1.30;;;20.50;48.80;;;;;;4966075;29;20442;-92
2021/05/17 10:10:55;;;;;;;1.43;1.00;;;20.30;48.70;;;;;;4966107;28;20430;-89
2021/05/17 10:13:24;;;;;;;1.20;1.20;;;20.60;48.90;;;;;;4953908;29;20427;-89
2021/05/17 10:15:59;;;;;;;1.53;1.43;;;19.80;48.80;;;;;;4972593;28;20485;-89
2021/05/17 10:18:26;;;;;;;1.43;1.33;;;19.30;50.10;;;;;;4954091;29;20448;-89
2021/05/17 10:20:52;;;;;;;1.77;1.50;;;19.80;49.30;;;;;;4956665;29;20437;-90
2021/05/17 10:23:22;;;;;;;1.50;1.30;;;20.00;49.50;;;;;;4959597;29;20442;-90
2021/05/17 10:25:54;;;;;;;1.37;1.30;;;21.40;48.80;;;;;;4954712;29;20434;-90
2021/05/17 10:28:24;;;;;;;1.17;1.00;;;19.70;47.50;;;;;;4972989;29;20418;-88
2021/05/17 10:30:50;;;;;;;0.90;0.90;;;20.20;48.60;;;;;;4953523;29;20489;-90
2021/05/17 10:33:33;;;;;;;0.80;0.80;;;22.50;47.00;;;;;;4973604;29;20516;-90
2021/05/17 10:36:16;;;;;;;0.83;0.83;;;21.50;45.20;;;;;;4978186;28;20437;-91
2021/05/17 10:38:48;;;;;;;1.13;1.13;;;21.80;43.50;;;;;;4953645;29;20463;-91
2021/05/17 10:41:48;;;;;;;1.00;1.00;;;22.50;43.40;;;;;;4971566;28;20479;-89
2021/05/17 10:44:42;;;;;;;1.00;0.97;;;22.00;44.00;;;;;;4972885;29;20419;-90
2021/05/17 10:47:07;;;;;;;1.30;1.30;;;21.70;45.30;;;;;;4971114;29;20446;-90
2021/05/17 10:49:37;;;;;;;1.47;1.33;;;20.40;44.90;;;;;;4970787;29;20536;-89
2021/05/17 10:52:10;;;;;;;1.47;1.00;;;19.10;46.70;;;;;;4973016;29;20180;-90
2021/05/17 10:54:59;;;;;;;5.30;0.97;;;19.70;50.80;;;;;;4990596;28;20443;-90
2021/05/17 10:57:32;;;;;;;0.83;0.80;;;17.00;56.30;;;;;;4971598;28;20405;-89
2021/05/17 11:02:43;;;;;;;2.10;0.83;;;14.10;64.30;;;;;;4988864;28;20404;-89
2021/05/17 11:05:19;;;;;;;1.37;1.37;;;14.50;71.20;;;;;;4966680;28;20421;-90
2021/05/17 11:07:54;;;;;;;0.90;0.90;;;13.90;71.80;;;;;;4986216;28;20468;-91
2021/05/17 11:10:25;;;;;;;0.87;0.87;;;14.40;73.60;;;;;;4967292;28;20413;-89
2021/05/17 11:12:51;;;;;;;0.90;0.90;;;15.00;70.40;;;;;;4985845;28;20413;-88
2021/05/17 11:15:19;;;;;;;1.50;1.30;;;15.20;65.70;;;;;;4971487;28;20488;-89
2021/05/17 11:17:57;;;;;;;1.50;1.47;;;15.10;66.90;;;;;;4968972;28;20185;-89
2021/05/17 11:20:50;;;;;;;1.70;1.60;;;15.40;70.30;;;;;;4968912;28;20463;-90
2021/05/17 11:23:28;;;;;;;2.17;1.97;;;14.50;70.00;;;;;;4991816;28;20378;-88
2021/05/17 11:26:17;;;;;;;1.67;1.63;;;15.20;70.90;;;;;;4977485;28;20441;-88
2021/05/17 11:28:43;;;;;;;1.33;1.33;;;15.10;72.90;;;;;;4984812;28;20417;-90
2021/05/17 11:31:25;;;;;;;1.30;1.30;;;15.30;72.50;;;;;;4985657;28;20420;-91
2021/05/17 11:34:01;;;;;;;2.20;2.00;;;16.00;66.80;;;;;;4993313;28;20177;-90
2021/05/17 11:36:52;;;;;;;1.07;1.07;;;15.80;62.00;;;;;;4990166;28;20413;-90
2021/05/17 11:39:28;;;;;;;1.40;1.30;;;15.90;58.30;;;;;;4956960;28;20468;-89
2021/05/17 11:41:57;;;;;;;1.10;1.10;;;17.10;62.60;;;;;;4989491;28;20413;-89
2021/05/17 11:45:22;;;;;;;1.20;1.20;;;17.50;61.50;;;;;;4988976;28;20944;-90
2021/05/17 11:47:52;;;;;;;1.20;1.13;;;17.70;58.80;;;;;;4971872;28;20557;-90
2021/05/17 11:50:22;;;;;;;1.20;1.20;;;19.40;56.90;;;;;;4988393;28;20790;-88
2021/05/17 11:52:48;;;;;;;1.40;1.40;;;19.00;56.70;;;;;;4972990;28;20492;-89
2021/05/17 11:55:14;;;;;;;1.20;1.20;;;18.10;58.10;;;;;;4972781;28;20425;-91
2021/05/17 11:57:46;;;;;;;1.07;1.07;;;18.80;59.40;;;;;;4987648;28;20182;-91
2021/05/17 12:00:17;;;;;;;0.97;0.97;;;18.60;57.00;;;;;;4972579;28;20433;-90
2021/05/17 12:02:43;;;;;;;1.80;0.90;;;17.70;56.00;;;;;;4985763;28;20464;-90
2021/05/17 12:05:12;;;;;;;0.80;0.80;;;17.50;53.80;;;;;;4968619;28;20414;-91
2021/05/17 12:07:51;;;;;;;0.73;0.73;;;17.90;56.30;;;;;;4984167;28;20465;-85
2021/05/17 12:10:21;;;;;;;0.80;0.80;;;16.60;55.50;;;;;;4969390;28;20413;-90
2021/05/17 12:12:53;;;;;;;0.60;0.60;;;16.00;57.40;;;;;;4969288;28;20549;-88
2021/05/17 12:15:20;;;;;;;1.60;0.70;;;16.00;57.70;;;;;;4965583;28;20433;-89
2021/05/17 12:17:48;;;;;;;1.10;1.10;;;16.40;59.70;;;;;;4951807;28;20527;-92
2021/05/17 12:20:20;;;;;;;1.20;1.20;;;15.40;64.50;;;;;;4278902;28;10000634;-85
2021/05/17 12:22:50;;;;;;;0.80;0.80;;;15.70;66.50;;;;;;4965281;28;20237;-90
2021/05/17 12:25:23;;;;;;;1.27;1.27;;;14.60;70.80;;;;;;4985593;28;20445;-90
2021/05/17 12:27:54;;;;;;;0.77;0.77;;;14.20;73.00;;;;;;4981864;28;20508;-91
2021/05/17 12:30:25;;;;;;;1.53;1.27;;;14.70;73.60;;;;;;4949396;28;20460;-89
2021/05/17 12:33:03;;;;;;;3.40;1.10;;;14.60;74.50;;;;;;4960397;28;20418;-90
2021/05/17 12:35:34;;;;;;;1.60;1.50;;;15.00;78.00;;;;;;4963871;28;20418;-88
2021/05/17 12:38:00;;;;;;;3.17;1.23;;;12.80;74.50;;;;;;4961648;28;20453;-88
2021/05/17 12:40:26;;;;;;;1.30;1.30;;;13.10;76.80;;;;;;4962111;29;20980;-86
2021/05/17 12:43:11;;;;;;;1.20;1.20;;;13.30;79.30;;;;;;4942826;29;20435;-88
2021/05/17 12:45:44;;;;;;;1.87;1.87;;;13.10;79.10;;;;;;4961601;29;20197;-89
2021/05/17 12:48:17;;;;;;;2.13;1.80;;;13.10;79.10;;;;;;4946893;29;20442;-90
2021/05/17 12:50:43;;;;;;;1.80;1.70;;;12.50;80.20;;;;;;4944971;29;20430;-88
2021/05/17 12:53:17;;;;;;;2.10;2.00;;;13.20;79.60;;;;;;4945086;29;20509;-88
2021/05/17 12:55:50;;;;;;;2.73;2.00;;;13.30;78.10;;;;;;4918757;29;20806;-90
2021/05/17 12:58:46;;;;;;;2.80;2.70;;;12.70;78.80;;;;;;4952135;29;20807;-89
2021/05/17 13:01:16;;;;;;;2.60;2.50;;;13.30;79.50;;;;;;4950835;29;20418;-84
2021/05/17 13:03:47;;;;;;;3.23;3.13;;;14.10;80.70;;;;;;4951278;29;20554;-87
2021/05/17 13:06:36;;;;;;;3.73;3.27;;;13.40;78.30;;;;;;4965170;29;20533;-89
2021/05/17 13:09:22;;;;;;;3.10;3.10;;;13.40;78.20;;;;;;4967678;29;20873;-88
2021/05/17 13:12:02;;;;;;;3.47;3.37;;;13.40;77.80;;;;;;4951805;29;20418;-90
2021/05/17 13:14:28;;;;;;;3.30;3.20;;;13.40;79.60;;;;;;4939086;29;20481;-89
2021/05/17 13:16:54;;;;;;;3.30;3.20;;;12.90;78.30;;;;;;4969229;29;20418;-90
2021/05/17 13:19:59;;;;;;;4.60;3.17;;;13.70;80.80;;;;;;4952250;29;20282;-89
2021/05/17 13:30:39;;;;;;;5.50;5.20;;;13.70;76.50;;;;;;4965996;29;20481;-89
2021/05/17 13:33:16;;;;;;;5.93;4.40;;;15.20;82.00;;;;;;4969472;29;20406;-85